createdAt,value
2023-04-14T00:01:58.693Z,2.80
2023-04-14T00:04:27.622Z,2.63
2023-04-14T00:06:58.387Z,2.80
2023-04-14T00:09:26.401Z,3.17
2023-04-14T00:11:56.580Z,2.83
2023-04-14T00:14:24.622Z,2.80
2023-04-14T00:16:52.629Z,2.77
2023-04-14T00:19:20.585Z,2.87
2023-04-14T00:21:48.513Z,2.80
2023-04-14T00:24:16.505Z,3.00
2023-04-14T00:26:44.578Z,3.00
2023-04-14T00:29:13.829Z,3.00
2023-04-14T00:31:41.844Z,3.73
2023-04-14T00:34:09.846Z,3.40
2023-04-14T00:36:37.866Z,4.07
2023-04-14T00:39:05.954Z,3.20
2023-04-14T00:41:34.936Z,2.90
2023-04-14T00:44:02.929Z,3.00
2023-04-14T00:46:32.475Z,3.23
2023-04-14T00:49:00.679Z,2.97
2023-04-14T00:51:29.088Z,3.07
2023-04-14T00:53:57.676Z,3.47
2023-04-14T00:56:26.949Z,3.37
2023-04-14T00:58:55.033Z,2.77
2023-04-14T01:01:23.405Z,3.30
2023-04-14T01:03:53.727Z,3.20
2023-04-14T01:06:21.986Z,3.10
2023-04-14T01:08:51.381Z,2.97
2023-04-14T01:11:31.712Z,3.33
2023-04-14T01:14:08.852Z,3.53
2023-04-14T01:16:40.925Z,3.70
2023-04-14T01:19:28.383Z,4.03
2023-04-14T01:22:02.880Z,4.30
2023-04-14T01:24:48.908Z,3.60
2023-04-14T01:27:33.667Z,3.63
2023-04-14T01:30:12.799Z,4.63
2023-04-14T01:32:46.455Z,4.10
2023-04-14T01:35:20.775Z,4.57
2023-04-14T01:37:52.409Z,4.30
2023-04-14T01:40:21.938Z,3.90
2023-04-14T01:42:57.399Z,3.80
2023-04-14T01:45:28.948Z,4.60
2023-04-14T01:47:59.745Z,4.20
2023-04-14T01:50:28.699Z,4.53
2023-04-14T01:52:57.139Z,4.07
2023-04-14T01:55:29.223Z,3.90
2023-04-14T01:57:58.337Z,3.93
2023-04-14T02:00:27.634Z,3.50
2023-04-14T02:02:56.875Z,3.47
2023-04-14T02:05:27.325Z,3.33
2023-04-14T02:07:56.497Z,3.30
2023-04-14T02:10:25.897Z,3.53
2023-04-14T02:12:57.907Z,3.87
2023-04-14T02:15:28.579Z,3.60
2023-04-14T02:17:58.305Z,3.50
2023-04-14T02:20:29.638Z,4.40
2023-04-14T02:22:57.758Z,3.30
2023-04-14T02:25:30.643Z,3.93
2023-04-14T02:28:02.047Z,3.43
2023-04-14T02:30:33.318Z,4.07
2023-04-14T02:33:06.569Z,3.80
2023-04-14T02:35:40.424Z,3.30
2023-04-14T02:38:17.027Z,3.53
2023-04-14T02:40:46.018Z,3.60
2023-04-14T02:43:18.799Z,3.67
2023-04-14T02:45:49.049Z,3.50
2023-04-14T02:48:19.551Z,3.83
2023-04-14T02:50:51.923Z,3.80
2023-04-14T02:53:23.417Z,4.03
2023-04-14T02:55:52.513Z,3.50
2023-04-14T02:58:21.822Z,3.43
2023-04-14T03:00:51.997Z,3.77
2023-04-14T03:03:21.205Z,3.47
2023-04-14T03:05:51.110Z,3.93
2023-04-14T03:08:20.378Z,4.40
2023-04-14T03:10:49.684Z,3.83
2023-04-14T03:13:19.119Z,3.50
2023-04-14T03:15:47.681Z,4.33
2023-04-14T03:18:16.930Z,3.83
2023-04-14T03:20:47.204Z,3.70
2023-04-14T03:23:18.920Z,3.97
2023-04-14T03:25:48.391Z,3.63
2023-04-14T03:28:22.838Z,4.30
2023-04-14T03:30:54.029Z,3.97
2023-04-14T03:33:25.682Z,3.80
2023-04-14T03:35:56.554Z,3.30
2023-04-14T03:38:28.764Z,3.57
2023-04-14T03:41:01.253Z,3.40
2023-04-14T03:43:29.798Z,3.23
2023-04-14T03:45:58.165Z,3.47
2023-04-14T03:48:29.882Z,3.40
2023-04-14T03:51:02.281Z,3.20
2023-04-14T03:53:34.886Z,3.07
2023-04-14T03:56:05.075Z,3.20
2023-04-14T03:58:34.199Z,3.00
2023-04-14T04:01:04.737Z,3.33
2023-04-14T04:03:34.593Z,2.80
2023-04-14T04:06:04.725Z,3.20
2023-04-14T04:08:36.773Z,3.10
2023-04-14T04:11:07.755Z,2.80
2023-04-14T04:13:37.780Z,3.17
2023-04-14T04:16:09.888Z,3.07
2023-04-14T04:18:40.205Z,3.20
2023-04-14T04:21:09.224Z,3.10
2023-04-14T04:23:40.876Z,3.33
2023-04-14T04:26:09.303Z,3.67
2023-04-14T04:28:38.191Z,3.30
2023-04-14T04:31:07.513Z,3.47
2023-04-14T04:33:36.657Z,3.17
2023-04-14T04:36:06.539Z,3.37
2023-04-14T04:38:34.617Z,3.50
2023-04-14T04:41:03.927Z,3.33
2023-04-14T04:43:31.903Z,3.50
2023-04-14T04:46:26.323Z,3.40
2023-04-14T04:48:56.076Z,2.90
2023-04-14T04:51:24.084Z,3.37
2023-04-14T04:53:52.031Z,3.63
2023-04-14T04:56:21.560Z,3.60
2023-04-14T04:58:49.500Z,2.93
2023-04-14T05:01:19.223Z,3.83
2023-04-14T05:03:47.551Z,3.40
2023-04-14T05:06:16.544Z,3.80
2023-04-14T05:08:44.527Z,3.83
2023-04-14T05:11:12.694Z,4.13
2023-04-14T05:13:42.015Z,4.27
2023-04-14T05:16:13.557Z,3.97
2023-04-14T05:18:42.618Z,4.53
2023-04-14T05:21:12.697Z,4.03
2023-04-14T05:23:42.142Z,4.37
2023-04-14T05:28:45.514Z,4.00
2023-04-14T05:31:13.563Z,3.67
2023-04-14T05:33:41.564Z,3.50
2023-04-14T05:36:09.582Z,4.07
2023-04-14T05:38:40.889Z,3.77
2023-04-14T05:41:08.895Z,3.67
2023-04-14T05:43:37.025Z,4.00
2023-04-14T05:46:06.780Z,4.90
2023-04-14T05:48:37.709Z,4.53
2023-04-14T05:51:05.927Z,4.90
2023-04-14T05:53:33.872Z,3.90
2023-04-14T05:56:01.801Z,4.50
2023-04-14T05:58:29.729Z,4.67
2023-04-14T06:00:57.687Z,4.50
2023-04-14T06:03:27.211Z,4.50
2023-04-14T06:05:55.370Z,4.57
2023-04-14T06:08:23.487Z,5.00
2023-04-14T06:10:51.479Z,6.40
2023-04-14T06:13:22.859Z,6.10
2023-04-14T06:15:51.081Z,5.40
2023-04-14T06:18:19.144Z,5.63
2023-04-14T06:20:48.512Z,5.30
2023-04-14T06:23:16.534Z,6.40
2023-04-14T06:25:44.447Z,8.13
2023-04-14T06:28:12.365Z,7.17
2023-04-14T06:30:40.347Z,6.10
2023-04-14T06:33:08.269Z,6.60
2023-04-14T06:35:36.721Z,5.40
2023-04-14T06:38:05.991Z,5.80
2023-04-14T06:40:33.977Z,5.43
2023-04-14T06:43:01.949Z,5.30
2023-04-14T06:45:29.881Z,5.07
2023-04-14T06:47:57.783Z,5.20
2023-04-14T06:50:25.766Z,5.13
2023-04-14T06:52:53.647Z,6.00
2023-04-14T06:55:22.855Z,5.80
2023-04-14T06:57:50.748Z,5.10
2023-04-14T07:00:19.520Z,5.60
2023-04-14T07:02:47.525Z,5.43
2023-04-14T07:05:17.185Z,5.60
2023-04-14T07:07:45.102Z,6.53
2023-04-14T07:10:13.678Z,7.03
2023-04-14T07:12:42.913Z,6.83
2023-04-14T07:15:11.589Z,7.77
2023-04-14T07:17:39.517Z,7.27
2023-04-14T07:20:08.631Z,7.50
2023-04-14T07:22:36.482Z,7.47
2023-04-14T07:25:04.485Z,7.30
2023-04-14T07:27:32.851Z,6.70
2023-04-14T07:30:02.227Z,5.37
2023-04-14T07:32:30.217Z,6.27
2023-04-14T07:34:59.141Z,6.30
2023-04-14T07:37:27.654Z,6.03
2023-04-14T07:39:55.944Z,5.63
2023-04-14T07:42:24.300Z,5.77
2023-04-14T07:44:52.449Z,5.30
2023-04-14T07:47:21.820Z,5.67
2023-04-14T07:49:49.788Z,5.70
2023-04-14T07:52:17.705Z,6.13
2023-04-14T07:54:46.020Z,6.60
2023-04-14T07:57:14.194Z,6.60
2023-04-14T07:59:42.851Z,6.70
2023-04-14T08:02:11.405Z,6.80
2023-04-14T08:04:41.261Z,6.17
2023-04-14T08:07:09.171Z,7.33
2023-04-14T08:09:37.079Z,7.67
2023-04-14T08:12:05.259Z,9.97
2023-04-14T08:14:33.542Z,11.70
2023-04-14T08:17:01.502Z,10.90
2023-04-14T08:19:30.402Z,12.23
2023-04-14T08:22:02.016Z,11.40
2023-04-14T08:24:30.592Z,12.53
2023-04-14T08:26:58.597Z,11.57
2023-04-14T08:29:26.949Z,11.87
2023-04-14T08:31:55.036Z,12.30
2023-04-14T08:34:28.426Z,11.67
2023-04-14T08:36:56.994Z,11.53
2023-04-14T08:39:26.269Z,12.23
2023-04-14T08:41:54.607Z,12.30
2023-04-14T08:44:23.222Z,11.80
2023-04-14T08:46:53.340Z,11.47
2023-04-14T08:49:33.323Z,11.33
2023-04-14T08:52:04.764Z,11.53
2023-04-14T08:54:34.763Z,9.90
2023-04-14T08:57:04.664Z,11.00
2023-04-14T08:59:34.783Z,11.63
2023-04-14T09:02:06.194Z,10.63
2023-04-14T09:04:37.314Z,11.67
2023-04-14T09:07:10.227Z,11.10
2023-04-14T09:09:42.894Z,10.37
2023-04-14T09:12:17.565Z,11.33
2023-04-14T09:14:46.508Z,10.93
2023-04-14T09:17:14.659Z,10.60
2023-04-14T09:20:36.196Z,10.83
2023-04-14T09:22:36.404Z,9.97
2023-04-14T09:25:06.635Z,10.57
2023-04-14T09:27:35.076Z,9.47
2023-04-14T09:30:04.495Z,11.40
2023-04-14T09:32:32.819Z,13.67
2023-04-14T09:35:00.988Z,10.70
2023-04-14T09:37:30.600Z,10.17
2023-04-14T09:39:58.508Z,9.00
2023-04-14T09:42:39.870Z,8.17
2023-04-14T09:45:09.512Z,8.37
2023-04-14T09:47:37.525Z,8.77
2023-04-14T09:50:06.148Z,7.53
2023-04-14T09:52:39.265Z,8.10
2023-04-14T09:55:10.483Z,6.27
2023-04-14T09:57:42.769Z,5.13
2023-04-14T10:00:21.629Z,5.07
2023-04-14T10:02:52.169Z,4.20
2023-04-14T10:05:21.558Z,4.07
2023-04-14T10:07:49.480Z,5.83
2023-04-14T10:10:17.809Z,6.10
2023-04-14T10:12:47.898Z,5.00
2023-04-14T10:15:17.282Z,6.00
2023-04-14T10:17:45.211Z,6.30
2023-04-14T10:20:13.415Z,6.20
2023-04-14T10:22:42.494Z,5.93
2023-04-14T10:25:11.705Z,5.37
2023-04-14T10:27:40.207Z,5.10
2023-04-14T10:30:10.199Z,4.63
2023-04-14T10:32:40.458Z,4.13
2023-04-14T10:35:11.153Z,3.60
2023-04-14T10:37:39.237Z,3.50
2023-04-14T10:40:08.628Z,3.73
2023-04-14T10:42:54.379Z,3.40
2023-04-14T10:45:24.240Z,3.20
2023-04-14T10:47:52.594Z,2.40
2023-04-14T10:50:25.050Z,3.53
2023-04-14T10:52:55.626Z,3.50
2023-04-14T10:55:24.673Z,3.53
2023-04-14T10:57:54.635Z,3.53
2023-04-14T11:00:26.737Z,2.73
2023-04-14T11:03:00.203Z,2.33
2023-04-14T11:05:28.340Z,3.10
2023-04-14T11:08:00.635Z,2.63
2023-04-14T11:10:32.937Z,2.20
2023-04-14T11:13:06.192Z,2.07
2023-04-14T11:16:02.302Z,2.30
2023-04-14T11:18:36.967Z,2.47
2023-04-14T11:21:06.613Z,2.33
2023-04-14T11:23:35.632Z,2.23
2023-04-14T11:26:06.258Z,2.93
2023-04-14T11:28:35.375Z,2.50
2023-04-14T11:31:06.558Z,2.47
2023-04-14T11:33:37.317Z,2.73
2023-04-14T11:36:07.157Z,2.63
2023-04-14T11:38:40.061Z,2.43
2023-04-14T11:41:08.759Z,2.77
2023-04-14T11:43:38.621Z,2.73
2023-04-14T11:46:09.066Z,2.73
2023-04-14T11:48:37.272Z,3.37
2023-04-14T11:51:05.549Z,2.77
2023-04-14T11:53:34.496Z,2.77
2023-04-14T11:56:02.724Z,2.80
2023-04-14T11:58:30.679Z,2.33
2023-04-14T12:00:58.922Z,2.40
2023-04-14T12:03:30.672Z,2.70
2023-04-14T12:06:00.612Z,2.20
2023-04-14T12:08:30.997Z,2.10
2023-04-14T12:10:59.203Z,2.30
2023-04-14T12:13:28.178Z,2.07
2023-04-14T12:15:56.732Z,2.00
2023-04-14T12:18:24.949Z,2.20
2023-04-14T12:20:56.228Z,2.50
2023-04-14T12:23:25.560Z,2.40
2023-04-14T12:25:54.194Z,2.50
2023-04-14T12:28:27.656Z,2.70
2023-04-14T12:30:59.275Z,2.40
2023-04-14T12:33:28.559Z,2.73
2023-04-14T12:36:04.734Z,2.27
2023-04-14T12:38:33.019Z,2.27
2023-04-14T12:41:04.434Z,2.10
2023-04-14T12:43:33.625Z,2.27
2023-04-14T12:46:03.743Z,2.17
2023-04-14T12:48:43.819Z,2.23
2023-04-14T12:51:14.921Z,2.47
2023-04-14T12:53:43.998Z,2.57
2023-04-14T12:56:14.139Z,2.30
2023-04-14T12:58:43.600Z,2.10
2023-04-14T13:01:13.209Z,2.10
2023-04-14T13:03:46.850Z,2.00
2023-04-14T13:06:17.918Z,2.00
2023-04-14T13:08:46.479Z,2.07
2023-04-14T13:11:14.706Z,2.53
2023-04-14T13:13:42.769Z,2.27
2023-04-14T13:16:15.340Z,2.13
2023-04-14T13:18:44.724Z,2.13
2023-04-14T13:21:12.789Z,1.87
2023-04-14T13:23:42.200Z,2.40
2023-04-14T13:26:10.403Z,2.70
2023-04-14T13:28:38.481Z,2.10
2023-04-14T13:31:06.908Z,1.73
2023-04-14T13:33:34.948Z,2.30
2023-04-14T13:36:03.161Z,2.40
2023-04-14T13:38:31.686Z,1.73
2023-04-14T13:41:01.159Z,1.80
2023-04-14T13:43:29.935Z,2.20
2023-04-14T13:45:58.484Z,1.73
2023-04-14T13:48:27.245Z,1.80
2023-04-14T13:50:55.814Z,1.80
2023-04-14T13:53:24.041Z,1.87
2023-04-14T13:55:52.039Z,1.83
2023-04-14T13:58:21.328Z,2.50
2023-04-14T14:00:49.348Z,2.23
2023-04-14T14:03:17.540Z,1.97
2023-04-14T14:05:45.818Z,1.80
2023-04-14T14:08:14.773Z,1.83
2023-04-14T14:10:42.870Z,1.77
2023-04-14T14:13:11.077Z,1.60
2023-04-14T14:15:40.616Z,1.77
2023-04-14T14:18:08.955Z,2.00
2023-04-14T14:20:37.333Z,1.77
2023-04-14T14:23:06.009Z,1.33
2023-04-14T14:25:33.974Z,1.70
2023-04-14T14:28:01.958Z,1.90
2023-04-14T14:30:30.458Z,1.70
2023-04-14T14:32:59.879Z,1.83
2023-04-14T14:35:28.043Z,1.40
2023-04-14T14:37:56.262Z,1.50
2023-04-14T14:40:24.196Z,1.83
2023-04-14T14:42:52.573Z,1.57
2023-04-14T14:45:26.159Z,1.60
2023-04-14T14:48:00.727Z,1.20
2023-04-14T14:50:28.764Z,1.50
2023-04-14T14:52:57.177Z,2.80
2023-04-14T14:55:25.304Z,1.60
2023-04-14T14:57:53.288Z,1.30
2023-04-14T15:00:21.518Z,2.17
2023-04-14T15:02:49.777Z,3.23
2023-04-14T15:05:19.415Z,1.50
2023-04-14T15:07:47.581Z,1.97
2023-04-14T15:10:16.094Z,1.87
2023-04-14T15:12:44.259Z,1.50
2023-04-14T15:15:13.022Z,2.50
2023-04-14T15:17:41.086Z,1.50
2023-04-14T15:20:10.121Z,1.30
2023-04-14T15:22:39.623Z,1.23
2023-04-14T15:25:09.038Z,1.40
2023-04-14T15:27:37.386Z,1.50
2023-04-14T15:30:06.226Z,2.33
2023-04-14T15:32:34.200Z,1.60
2023-04-14T15:35:02.311Z,1.63
2023-04-14T15:37:30.449Z,1.70
2023-04-14T15:40:00.295Z,1.70
2023-04-14T15:42:28.595Z,1.40
2023-04-14T15:44:56.555Z,1.30
2023-04-14T15:47:24.657Z,1.53
2023-04-14T15:49:55.966Z,1.70
2023-04-14T15:52:37.559Z,1.50
2023-04-14T15:55:08.544Z,1.40
2023-04-14T15:57:37.162Z,1.67
2023-04-14T16:00:07.451Z,1.43
2023-04-14T16:02:36.304Z,1.40
2023-04-14T16:05:05.494Z,1.60
2023-04-14T16:07:33.501Z,1.20
2023-04-14T16:10:02.082Z,3.30
2023-04-14T16:12:31.667Z,3.80
2023-04-14T16:14:59.615Z,2.50
2023-04-14T16:17:28.007Z,1.60
2023-04-14T16:19:56.028Z,1.50
2023-04-14T16:22:23.930Z,2.27
2023-04-14T16:24:51.851Z,1.50
2023-04-14T16:27:22.430Z,1.30
2023-04-14T16:29:52.068Z,2.03
2023-04-14T16:32:20.183Z,1.60
2023-04-14T16:34:48.395Z,1.10
2023-04-14T16:37:16.781Z,1.60
2023-04-14T16:39:44.802Z,2.47
2023-04-14T16:42:12.993Z,4.60
2023-04-14T16:44:41.473Z,2.17
2023-04-14T16:47:10.885Z,2.90
2023-04-14T16:49:38.891Z,1.97
2023-04-14T16:52:07.024Z,1.63
2023-04-14T16:54:36.679Z,1.30
2023-04-14T16:57:04.797Z,1.43
2023-04-14T16:59:32.899Z,1.40
2023-04-14T17:02:01.157Z,1.40
2023-04-14T17:04:31.321Z,1.13
2023-04-14T17:06:59.381Z,1.30
2023-04-14T17:09:27.401Z,1.27
2023-04-14T17:11:55.403Z,1.27
2023-04-14T17:14:23.936Z,1.27
2023-04-14T17:16:52.319Z,1.30
2023-04-14T17:19:20.792Z,1.37
2023-04-14T17:21:50.322Z,1.17
2023-04-14T17:24:18.789Z,1.33
2023-04-14T17:26:46.763Z,1.10
2023-04-14T17:29:14.782Z,1.53
2023-04-14T17:31:43.053Z,1.50
2023-04-14T17:34:11.862Z,1.20
2023-04-14T17:36:40.593Z,1.27
2023-04-14T17:39:10.384Z,1.50
2023-04-14T17:41:38.711Z,1.00
2023-04-14T17:44:07.172Z,1.30
2023-04-14T17:46:35.271Z,1.20
2023-04-14T17:49:03.966Z,1.40
2023-04-14T17:51:32.988Z,1.53
2023-04-14T17:54:01.426Z,1.13
2023-04-14T17:56:31.941Z,1.40
2023-04-14T17:59:00.105Z,1.37
2023-04-14T18:01:28.501Z,1.33
2023-04-14T18:03:58.323Z,1.77
2023-04-14T18:06:26.350Z,1.53
2023-04-14T18:08:54.332Z,1.33
2023-04-14T18:11:22.304Z,1.30
2023-04-14T18:13:51.899Z,1.20
2023-04-14T18:16:20.308Z,1.43
2023-04-14T18:18:48.365Z,2.00
2023-04-14T18:21:16.717Z,1.60
2023-04-14T18:23:44.747Z,1.90
2023-04-14T18:28:43.631Z,1.50
2023-04-14T18:31:14.771Z,1.50
2023-04-14T18:33:43.397Z,1.93
2023-04-14T18:36:11.467Z,2.10
2023-04-14T18:38:39.429Z,2.40
2023-04-14T18:41:07.412Z,1.80
2023-04-14T18:43:35.462Z,2.10
2023-04-14T18:46:03.839Z,2.03
2023-04-14T18:48:33.360Z,1.93
2023-04-14T18:51:07.958Z,1.60
2023-04-14T18:53:36.107Z,1.70
2023-04-14T18:56:04.230Z,2.03
2023-04-14T18:58:32.148Z,1.83
2023-04-14T19:01:00.205Z,2.00
2023-04-14T19:03:28.546Z,1.83
2023-04-14T19:05:57.862Z,1.67
2023-04-14T19:08:25.923Z,1.50
2023-04-14T19:10:53.914Z,1.80
2023-04-14T19:13:22.225Z,2.13
2023-04-14T19:15:50.203Z,1.73
2023-04-14T19:18:18.823Z,2.80
2023-04-14T19:20:47.599Z,5.23
2023-04-14T19:23:17.044Z,3.20
2023-04-14T19:25:45.551Z,2.60
2023-04-14T19:28:16.748Z,2.17
2023-04-14T19:30:45.786Z,2.37
2023-04-14T19:33:14.026Z,2.17
2023-04-14T19:35:45.228Z,1.87
2023-04-14T19:38:13.708Z,2.23
2023-04-14T19:40:49.261Z,2.00
2023-04-14T19:43:18.034Z,2.47
2023-04-14T19:45:52.565Z,2.00
2023-04-14T19:48:23.965Z,1.87
2023-04-14T19:50:54.656Z,2.37
2023-04-14T19:53:23.525Z,1.80
2023-04-14T19:55:55.892Z,1.90
2023-04-14T19:58:24.647Z,2.07
2023-04-14T20:00:55.747Z,2.10
2023-04-14T20:03:24.452Z,2.10
2023-04-14T20:05:53.150Z,1.83
2023-04-14T20:08:21.687Z,1.83
2023-04-14T20:10:51.723Z,2.03
2023-04-14T20:13:22.519Z,2.00
2023-04-14T20:15:53.820Z,1.97
2023-04-14T20:18:23.705Z,1.77
2023-04-14T20:20:52.740Z,1.40
2023-04-14T20:23:22.969Z,1.73
2023-04-14T20:25:51.032Z,2.10
2023-04-14T20:28:20.083Z,2.10
2023-04-14T20:30:51.235Z,2.17
2023-04-14T20:33:21.424Z,1.93
2023-04-14T20:35:51.509Z,4.77
2023-04-14T20:38:23.568Z,4.50
2023-04-14T20:40:51.649Z,3.13
2023-04-14T20:43:19.657Z,3.30
2023-04-14T20:45:53.133Z,3.40
2023-04-14T20:48:21.431Z,5.77
2023-04-14T20:50:50.116Z,3.10
2023-04-14T20:53:18.381Z,4.87
2023-04-14T20:55:46.304Z,5.70
2023-04-14T20:58:14.862Z,8.63
2023-04-14T21:00:43.396Z,8.23
2023-04-14T21:03:19.033Z,13.17
2023-04-14T21:05:48.577Z,10.70
2023-04-14T21:08:16.849Z,12.40
2023-04-14T21:11:14.204Z,10.60
2023-04-14T21:15:26.868Z,3.00
2023-04-14T21:16:20.902Z,2.50
2023-04-14T21:18:50.382Z,1.80
2023-04-14T21:21:18.394Z,2.90
2023-04-14T21:23:46.332Z,2.73
2023-04-14T21:26:14.483Z,2.40
2023-04-14T21:28:43.006Z,3.27
2023-04-14T21:31:11.430Z,3.50
2023-04-14T21:33:41.646Z,4.33
2023-04-14T21:36:11.038Z,3.07
2023-04-14T21:38:39.458Z,3.30
2023-04-14T21:41:07.867Z,2.87
2023-04-14T21:43:35.996Z,2.33
2023-04-14T21:46:05.297Z,2.33
2023-04-14T21:48:33.345Z,2.80
2023-04-14T21:51:01.391Z,2.60
2023-04-14T21:53:30.814Z,2.30
2023-04-14T21:56:09.874Z,2.33
2023-04-14T21:58:39.200Z,2.13
2023-04-14T22:01:09.661Z,2.27
2023-04-14T22:03:41.002Z,2.00
2023-04-14T22:06:11.288Z,2.77
2023-04-14T22:08:42.090Z,2.20
2023-04-14T22:11:10.219Z,2.30
2023-04-14T22:13:38.783Z,3.30
2023-04-14T22:16:07.574Z,2.20
2023-04-14T22:18:35.843Z,2.50
2023-04-14T22:21:04.842Z,2.30
2023-04-14T22:23:33.089Z,1.97
2023-04-14T22:26:02.565Z,2.90
2023-04-14T22:28:30.685Z,2.53
2023-04-14T22:30:58.715Z,2.17
2023-04-14T22:33:27.348Z,2.50
2023-04-14T22:35:55.263Z,2.97
2023-04-14T22:38:23.292Z,2.80
2023-04-14T22:40:52.757Z,2.57
2023-04-14T22:43:22.287Z,2.10
2023-04-14T22:45:51.021Z,2.63
2023-04-14T22:48:19.083Z,2.73
2023-04-14T22:50:47.038Z,3.00
2023-04-14T22:53:15.066Z,2.17
2023-04-14T22:55:44.390Z,2.00
2023-04-14T22:58:16.524Z,2.03
2023-04-14T23:00:46.548Z,2.20
2023-04-14T23:03:15.552Z,2.50
2023-04-14T23:05:44.686Z,2.00
2023-04-14T23:08:12.749Z,2.17
2023-04-14T23:10:41.075Z,2.17
2023-04-14T23:13:09.362Z,1.60
2023-04-14T23:15:37.315Z,2.20
2023-04-14T23:18:06.679Z,2.10
2023-04-14T23:20:34.834Z,2.60
2023-04-14T23:23:03.500Z,2.20
2023-04-14T23:25:31.546Z,1.90
2023-04-14T23:27:59.544Z,2.10
2023-04-14T23:30:30.593Z,2.50
2023-04-14T23:32:58.603Z,2.40
2023-04-14T23:35:28.163Z,2.20
2023-04-14T23:37:56.614Z,2.23
2023-04-14T23:40:24.614Z,2.40
2023-04-14T23:42:55.941Z,2.30
2023-04-14T23:45:24.229Z,2.20
2023-04-14T23:47:52.275Z,2.00
2023-04-14T23:50:20.675Z,2.23
2023-04-14T23:52:50.887Z,1.90
2023-04-14T23:55:19.520Z,2.50
2023-04-14T23:57:47.475Z,2.10
